Time;durP1;ratioP1;P1;durP2;ratioP2;P2;SDS_P1;SDS_P2;PMS_P1;PMS_P2;Temp;Humidity;BMP_temperature;BMP_pressure;BME280_temperature;BME280_humidity;BME280_pressure;Samples;Min_cycle;Max_cycle;Signal;HPM_P1;HPM_P2
2022/05/03 00:01:49;;;;;;;3.53;1.30;;;;;15.90;101823.00;;;;5048245;28;20230;-76
2022/05/03 00:04:26;;;;;;;2.78;1.52;;;;;15.80;101819.00;;;;5049172;28;20211;-76
2022/05/03 00:07:03;;;;;;;1.90;1.55;;;;;15.80;101819.00;;;;5049092;28;20245;-76
2022/05/03 00:09:38;;;;;;;1.52;1.15;;;;;15.70;101825.00;;;;5049518;28;20202;-76
2022/05/03 00:12:09;;;;;;;2.15;1.10;;;;;15.70;101815.00;;;;5048511;28;20202;-76
2022/05/03 00:14:43;;;;;;;3.13;1.40;;;;;15.60;101812.00;;;;5049314;28;20203;-76
2022/05/03 00:17:14;;;;;;;4.20;1.27;;;;;15.60;101819.00;;;;5049140;28;20207;-77
2022/05/03 00:19:43;;;;;;;1.65;1.27;;;;;15.50;101818.00;;;;5034494;28;20200;-77
2022/05/03 00:22:13;;;;;;;1.45;1.20;;;;;15.40;101810.00;;;;5048827;28;20221;-77
2022/05/03 00:24:40;;;;;;;1.77;1.48;;;;;15.40;101808.00;;;;5049239;28;20203;-77
2022/05/03 00:27:08;;;;;;;1.95;1.63;;;;;15.30;101813.00;;;;5048976;28;20199;-76
2022/05/03 00:29:36;;;;;;;2.13;1.58;;;;;15.30;101812.00;;;;5049095;28;20214;-76
2022/05/03 00:32:04;;;;;;;2.13;1.35;;;;;15.20;101813.00;;;;5048735;28;20804;-77
2022/05/03 00:34:33;;;;;;;4.25;1.80;;;;;15.20;101814.00;;;;5049012;28;20235;-77
2022/05/03 00:37:00;;;;;;;2.00;1.42;;;;;15.10;101807.00;;;;5052968;28;20265;-76
2022/05/03 00:39:29;;;;;;;1.80;1.40;;;;;15.10;101817.00;;;;5053297;28;20234;-76
2022/05/03 00:42:02;;;;;;;1.70;1.58;;;;;15.00;101816.00;;;;5042656;28;20212;-77
2022/05/03 00:44:58;;;;;;;1.67;1.52;;;;;14.90;101811.00;;;;5032826;28;20215;-77
2022/05/03 00:47:41;;;;;;;1.50;1.38;;;;;14.80;101811.00;;;;5032939;28;20211;-76
2022/05/03 00:50:11;;;;;;;2.10;1.55;;;;;14.90;101814.00;;;;5033007;28;20266;-76
2022/05/03 00:52:46;;;;;;;2.38;1.70;;;;;14.80;101809.00;;;;5032480;28;20192;-77
2022/05/03 00:55:37;;;;;;;2.10;1.80;;;;;14.70;101805.00;;;;5051016;28;20202;-76
2022/05/03 00:58:26;;;;;;;2.33;1.60;;;;;14.60;101807.00;;;;5052726;28;20199;-76
2022/05/03 01:01:04;;;;;;;2.30;1.80;;;;;14.70;101813.00;;;;5045740;28;20255;-76
2022/05/03 01:03:41;;;;;;;3.10;2.00;;;;;14.60;101817.00;;;;5039637;28;20204;-77
2022/05/03 01:06:21;;;;;;;2.22;1.65;;;;;14.50;101810.00;;;;5032935;28;20218;-76
2022/05/03 01:09:04;;;;;;;2.22;1.67;;;;;14.50;101815.00;;;;5043355;28;20203;-77
2022/05/03 01:11:47;;;;;;;1.88;1.50;;;;;14.50;101819.00;;;;5045428;28;20225;-77
2022/05/03 01:14:38;;;;;;;2.08;1.63;;;;;14.40;101813.00;;;;5031796;28;20662;-76
2022/05/03 01:17:07;;;;;;;2.13;1.60;;;;;14.40;101804.00;;;;5031647;28;20208;-77
2022/05/03 01:19:48;;;;;;;3.63;1.67;;;;;14.40;101806.00;;;;5038770;28;20208;-77
2022/05/03 01:22:36;;;;;;;2.25;1.73;;;;;14.30;101797.00;;;;5031841;28;20203;-77
2022/05/03 01:25:24;;;;;;;3.63;1.63;;;;;14.30;101793.00;;;;5031647;28;20189;-77
2022/05/03 01:28:16;;;;;;;2.03;1.63;;;;;14.20;101797.00;;;;5038083;28;20211;-77
2022/05/03 01:30:49;;;;;;;3.97;1.83;;;;;14.20;101791.00;;;;5051111;28;20203;-76
2022/05/03 01:33:24;;;;;;;2.00;1.42;;;;;14.20;101804.00;;;;5050459;28;20223;-77
2022/05/03 01:35:55;;;;;;;4.00;1.67;;;;;14.20;101798.00;;;;5030365;28;20230;-77
2022/05/03 01:38:45;;;;;;;2.42;2.20;;;;;14.10;101800.00;;;;5031370;28;20224;-77
2022/05/03 01:41:20;;;;;;;3.67;1.98;;;;;14.10;101792.00;;;;5031135;28;20212;-77
2022/05/03 01:44:06;;;;;;;2.30;1.65;;;;;14.00;101799.00;;;;5032312;28;20202;-77
2022/05/03 01:46:37;;;;;;;2.60;1.75;;;;;14.00;101800.00;;;;5049867;28;20218;-77
2022/05/03 01:52:16;;;;;;;2.58;2.15;;;;;13.90;101791.00;;;;5031046;28;20203;-77
2022/05/03 01:55:23;;;;;;;2.38;1.80;;;;;13.80;101793.00;;;;5009828;28;20228;-77
2022/05/03 01:58:02;;;;;;;2.25;1.60;;;;;13.90;101793.00;;;;5010048;28;20207;-78
2022/05/03 02:00:29;;;;;;;2.15;1.92;;;;;13.90;101782.00;;;;5038749;28;20199;-78
2022/05/03 02:03:07;;;;;;;2.65;1.83;;;;;13.80;101788.00;;;;5050359;28;20203;-75
2022/05/03 02:05:53;;;;;;;3.85;2.08;;;;;13.80;101782.00;;;;5034285;28;20205;-76
2022/05/03 02:08:22;;;;;;;2.88;1.90;;;;;13.80;101782.00;;;;5050692;28;20228;-75
2022/05/03 02:11:04;;;;;;;2.70;2.17;;;;;13.70;101784.00;;;;5049882;28;20196;-75
2022/05/03 02:16:45;;;;;;;1.98;1.58;;;;;13.60;101780.00;;;;5049468;28;20588;-75
2022/05/03 02:19:34;;;;;;;2.25;1.80;;;;;13.60;101778.00;;;;5043476;28;20278;-76
2022/05/03 02:22:14;;;;;;;2.70;1.65;;;;;13.60;101778.00;;;;5050098;28;20606;-76
2022/05/03 02:24:50;;;;;;;2.80;1.67;;;;;13.60;101776.00;;;;5050830;28;20214;-76
2022/05/03 02:27:19;;;;;;;2.10;1.50;;;;;13.60;101772.00;;;;5050577;28;20222;-76
2022/05/03 02:29:49;;;;;;;2.15;1.85;;;;;13.60;101775.00;;;;5050057;28;20294;-76
2022/05/03 02:32:22;;;;;;;2.40;1.67;;;;;13.50;101769.00;;;;5050553;28;20245;-76
2022/05/03 02:34:59;;;;;;;2.42;1.67;;;;;13.50;101766.00;;;;5048576;28;20232;-76
2022/05/03 02:37:32;;;;;;;3.20;1.90;;;;;13.50;101770.00;;;;5049632;28;20265;-75
2022/05/03 02:40:02;;;;;;;2.15;1.63;;;;;13.50;101766.00;;;;5049947;28;20207;-76
2022/05/03 02:42:32;;;;;;;2.75;2.10;;;;;13.40;101772.00;;;;5049544;28;20218;-76
2022/05/03 02:45:02;;;;;;;1.90;1.58;;;;;13.40;101774.00;;;;5050444;28;20207;-76
2022/05/03 02:47:35;;;;;;;2.38;1.92;;;;;13.40;101772.00;;;;5049696;28;20207;-77
2022/05/03 02:50:10;;;;;;;2.35;1.50;;;;;13.40;101773.00;;;;5049520;28;20203;-76
2022/05/03 02:52:57;;;;;;;1.50;1.35;;;;;13.30;101775.00;;;;5049314;28;20293;-77
2022/05/03 02:55:33;;;;;;;3.22;2.00;;;;;13.30;101771.00;;;;5049706;28;20227;-76
2022/05/03 02:58:06;;;;;;;2.13;1.58;;;;;13.20;101781.00;;;;5048582;28;20203;-76
2022/05/03 03:03:52;;;;;;;5.00;1.75;;;;;13.10;101779.00;;;;5046910;28;20319;-77
2022/05/03 03:06:24;;;;;;;2.22;1.75;;;;;13.20;101771.00;;;;5030243;28;20577;-77
2022/05/03 03:08:54;;;;;;;1.83;1.60;;;;;13.20;101767.00;;;;5029258;28;21279;-75
2022/05/03 03:11:32;;;;;;;2.30;1.95;;;;;13.10;101767.00;;;;5048057;28;20195;-77
2022/05/03 03:14:10;;;;;;;2.03;1.65;;;;;13.10;101769.00;;;;5049406;28;20314;-77
2022/05/03 03:16:43;;;;;;;2.35;1.50;;;;;13.00;101774.00;;;;5049137;28;20278;-77
2022/05/03 03:19:26;;;;;;;2.13;1.75;;;;;13.00;101771.00;;;;5039531;28;20664;-77
2022/05/03 03:21:58;;;;;;;2.13;1.65;;;;;13.00;101774.00;;;;5028921;28;20646;-77
2022/05/03 03:24:29;;;;;;;2.03;1.48;;;;;13.00;101771.00;;;;5029656;28;20589;-77
2022/05/03 03:26:56;;;;;;;1.75;1.45;;;;;13.00;101771.00;;;;5036388;28;20645;-77
2022/05/03 03:29:24;;;;;;;3.00;1.77;;;;;12.90;101770.00;;;;5049393;28;20199;-77
2022/05/03 03:31:53;;;;;;;1.98;1.63;;;;;12.90;101769.00;;;;5048716;28;20230;-77
2022/05/03 03:34:23;;;;;;;3.30;1.60;;;;;12.90;101768.00;;;;5039704;28;20224;-77
2022/05/03 03:37:01;;;;;;;2.38;1.50;;;;;12.90;101773.00;;;;5028341;28;20204;-77
2022/05/03 03:39:31;;;;;;;1.65;1.40;;;;;12.80;101773.00;;;;5028909;28;20270;-77
2022/05/03 03:42:00;;;;;;;2.67;1.60;;;;;12.80;101765.00;;;;5028902;28;20437;-77
2022/05/03 03:44:28;;;;;;;2.10;1.55;;;;;12.80;101773.00;;;;5040585;28;20265;-77
2022/05/03 03:46:55;;;;;;;2.28;1.67;;;;;12.80;101767.00;;;;5048652;28;20196;-77
2022/05/03 03:49:23;;;;;;;2.28;1.83;;;;;12.80;101763.00;;;;5049010;28;20224;-77
2022/05/03 03:51:51;;;;;;;2.15;1.95;;;;;12.70;101765.00;;;;5048148;28;20199;-77
2022/05/03 03:54:20;;;;;;;2.47;1.60;;;;;12.70;101761.00;;;;5048469;28;20281;-77
2022/05/03 03:56:50;;;;;;;1.88;1.33;;;;;12.70;101771.00;;;;5048992;28;20200;-77
2022/05/03 03:59:18;;;;;;;3.50;1.67;;;;;12.70;101762.00;;;;5046758;28;20207;-77
2022/05/03 04:01:48;;;;;;;2.47;1.67;;;;;12.60;101761.00;;;;5038371;28;20215;-77
2022/05/03 04:04:17;;;;;;;2.95;1.65;;;;;12.60;101764.00;;;;5028819;28;20208;-77
2022/05/03 04:06:44;;;;;;;2.45;1.92;;;;;12.60;101775.00;;;;5028430;28;20200;-77
2022/05/03 04:09:11;;;;;;;2.92;1.50;;;;;12.60;101772.00;;;;5028878;28;20279;-77
2022/05/03 04:11:46;;;;;;;2.20;1.55;;;;;12.50;101774.00;;;;5031602;28;20780;-77
2022/05/03 04:14:15;;;;;;;2.20;1.70;;;;;12.50;101771.00;;;;5048299;28;20230;-77
2022/05/03 04:16:43;;;;;;;2.22;1.77;;;;;12.50;101771.00;;;;5048475;28;20199;-77
2022/05/03 04:19:13;;;;;;;1.98;1.77;;;;;12.50;101768.00;;;;5038203;28;20871;-77
2022/05/03 04:21:40;;;;;;;2.53;1.80;;;;;12.50;101773.00;;;;5028269;28;20224;-77
2022/05/03 04:24:08;;;;;;;4.53;2.08;;;;;12.50;101770.00;;;;5028521;28;20219;-77
2022/05/03 04:26:36;;;;;;;6.72;2.70;;;;;12.50;101774.00;;;;5028331;28;20619;-77
2022/05/03 04:29:04;;;;;;;2.33;1.90;;;;;12.40;101770.00;;;;5027997;28;20681;-77
2022/05/03 04:31:34;;;;;;;3.50;2.45;;;;;12.40;101768.00;;;;5028567;28;20578;-77
2022/05/03 04:34:03;;;;;;;2.90;1.98;;;;;12.50;101767.00;;;;5037251;28;20269;-77
2022/05/03 04:36:32;;;;;;;3.33;2.50;;;;;12.50;101771.00;;;;5047597;28;20227;-77
2022/05/03 04:38:59;;;;;;;3.88;2.42;;;;;12.50;101769.00;;;;5047878;28;20246;-76
2022/05/03 04:41:26;;;;;;;2.85;2.25;;;;;12.50;101766.00;;;;5047974;28;20230;-76
2022/05/03 04:43:54;;;;;;;2.78;1.85;;;;;12.50;101770.00;;;;5048401;28;20210;-76
2022/05/03 04:46:21;;;;;;;3.10;2.50;;;;;12.50;101769.00;;;;5048568;28;20207;-76
2022/05/03 04:48:50;;;;;;;4.35;2.35;;;;;12.50;101777.00;;;;5048196;28;20290;-76
2022/05/03 04:51:18;;;;;;;3.53;2.17;;;;;12.50;101774.00;;;;5048097;28;20203;-76
2022/05/03 04:53:46;;;;;;;3.38;2.42;;;;;12.60;101780.00;;;;5048125;28;20367;-76
2022/05/03 04:56:21;;;;;;;3.63;2.30;;;;;12.50;101775.00;;;;5047874;28;20207;-76
2022/05/03 04:58:49;;;;;;;2.95;2.28;;;;;12.60;101784.00;;;;5047956;28;20203;-76
2022/05/03 05:01:17;;;;;;;3.00;2.70;;;;;12.70;101779.00;;;;5046644;28;20200;-76
2022/05/03 05:03:45;;;;;;;10.45;3.20;;;;;12.70;101782.00;;;;5047536;28;20202;-76
2022/05/03 05:06:14;;;;;;;3.67;2.70;;;;;12.70;101790.00;;;;5047321;28;20306;-76
2022/05/03 05:08:43;;;;;;;2.65;2.10;;;;;12.80;101789.00;;;;5043631;28;20197;-76
2022/05/03 05:11:11;;;;;;;3.72;2.38;;;;;12.80;101787.00;;;;5028763;28;20215;-76
2022/05/03 05:13:39;;;;;;;2.80;2.17;;;;;12.90;101786.00;;;;5028375;28;20236;-76
2022/05/03 05:16:07;;;;;;;2.35;2.15;;;;;13.00;101793.00;;;;5027747;28;20712;-76
2022/05/03 05:18:35;;;;;;;3.10;2.20;;;;;13.00;101795.00;;;;5040360;28;20208;-76
2022/05/03 05:21:03;;;;;;;2.55;1.90;;;;;13.10;101793.00;;;;5048583;28;20196;-76
2022/05/03 05:23:31;;;;;;;2.28;1.85;;;;;13.10;101797.00;;;;5051856;28;20211;-76
2022/05/03 05:25:58;;;;;;;3.58;2.25;;;;;13.20;101798.00;;;;5050655;28;20195;-76
2022/05/03 05:28:26;;;;;;;3.35;2.78;;;;;13.30;101796.00;;;;5051578;28;20203;-77
2022/05/03 05:30:54;;;;;;;2.60;2.35;;;;;13.40;101799.00;;;;5050639;28;20227;-76
2022/05/03 05:33:21;;;;;;;2.67;2.13;;;;;13.40;101806.00;;;;5051639;28;20200;-76
2022/05/03 05:35:49;;;;;;;2.78;2.30;;;;;13.50;101803.00;;;;5050355;28;20284;-76
2022/05/03 05:38:17;;;;;;;2.25;1.98;;;;;13.60;101803.00;;;;5051777;28;20227;-76
2022/05/03 05:40:47;;;;;;;2.85;2.40;;;;;13.70;101805.00;;;;5051648;28;20204;-77
2022/05/03 05:43:14;;;;;;;2.47;2.10;;;;;13.80;101805.00;;;;5050614;28;20310;-76
2022/05/03 05:45:41;;;;;;;4.75;2.90;;;;;13.90;101800.00;;;;5051031;28;20261;-77
2022/05/03 05:48:09;;;;;;;3.72;2.35;;;;;14.00;101803.00;;;;5050911;28;20203;-76
2022/05/03 05:50:36;;;;;;;3.53;2.65;;;;;14.10;101802.00;;;;5050674;28;20195;-77
2022/05/03 05:55:50;;;;;;;3.47;1.88;;;;;14.30;101808.00;;;;5050682;28;20227;-76
2022/05/03 05:58:17;;;;;;;3.67;2.35;;;;;14.40;101803.00;;;;5050651;28;20575;-77
2022/05/03 06:00:44;;;;;;;3.25;2.35;;;;;14.50;101804.00;;;;5040030;28;20209;-77
2022/05/03 06:03:11;;;;;;;2.67;1.88;;;;;14.70;101803.00;;;;5030855;28;20196;-77
2022/05/03 06:05:39;;;;;;;3.28;2.72;;;;;14.80;101806.00;;;;5030691;28;20283;-76
2022/05/03 06:08:07;;;;;;;3.33;2.30;;;;;14.90;101803.00;;;;5030996;28;20196;-77
2022/05/03 06:10:34;;;;;;;3.15;2.17;;;;;15.00;101810.00;;;;5029948;28;20287;-77
2022/05/03 06:13:03;;;;;;;3.42;2.47;;;;;15.10;101812.00;;;;5030289;28;20211;-77
2022/05/03 06:15:30;;;;;;;3.25;2.30;;;;;15.30;101814.00;;;;5030404;28;20319;-76
2022/05/03 06:17:58;;;;;;;2.92;1.88;;;;;15.40;101812.00;;;;5045742;28;20207;-77
2022/05/03 06:20:27;;;;;;;4.20;2.42;;;;;15.50;101814.00;;;;5050809;28;20192;-77
2022/05/03 06:22:55;;;;;;;2.30;1.88;;;;;15.70;101808.00;;;;5050793;28;20200;-77
2022/05/03 06:25:23;;;;;;;2.90;2.05;;;;;15.80;101808.00;;;;5048086;28;20202;-76
2022/05/03 06:27:50;;;;;;;1.98;1.65;;;;;16.00;101811.00;;;;5038101;28;20193;-77
2022/05/03 06:30:19;;;;;;;2.15;1.92;;;;;16.10;101816.00;;;;5030345;28;20291;-76
2022/05/03 06:32:46;;;;;;;4.20;2.15;;;;;16.20;101821.00;;;;5030416;28;20212;-77
2022/05/03 06:35:14;;;;;;;3.17;2.30;;;;;16.40;101814.00;;;;5047648;28;20235;-77
2022/05/03 06:37:42;;;;;;;3.97;2.25;;;;;16.50;101822.00;;;;5050422;28;20701;-77
2022/05/03 06:40:11;;;;;;;3.03;2.55;;;;;16.70;101826.00;;;;5049100;28;20218;-76
2022/05/03 06:42:39;;;;;;;4.57;3.08;;;;;16.80;101823.00;;;;5049958;28;20222;-77
2022/05/03 06:45:08;;;;;;;2.85;2.50;;;;;17.00;101822.00;;;;5049284;28;20203;-77
2022/05/03 06:47:38;;;;;;;3.72;2.80;;;;;17.10;101819.00;;;;5049685;28;20624;-77
2022/05/03 06:50:06;;;;;;;3.45;2.58;;;;;17.30;101824.00;;;;5049637;28;20206;-77
2022/05/03 06:52:34;;;;;;;3.50;2.53;;;;;17.40;101819.00;;;;5049868;28;20199;-76
2022/05/03 06:55:01;;;;;;;3.25;2.95;;;;;17.60;101818.00;;;;5049472;28;20635;-76
2022/05/03 06:57:29;;;;;;;4.43;3.17;;;;;17.70;101820.00;;;;5049007;28;20208;-76
2022/05/03 06:59:56;;;;;;;3.35;2.60;;;;;17.90;101823.00;;;;5045116;28;20192;-76
2022/05/03 07:02:23;;;;;;;3.95;3.00;;;;;18.00;101831.00;;;;5030005;28;20203;-76
2022/05/03 07:04:52;;;;;;;4.25;3.40;;;;;18.20;101826.00;;;;5029895;28;20215;-77
2022/05/03 07:07:19;;;;;;;6.10;2.72;;;;;18.30;101829.00;;;;5032237;28;20192;-76
2022/05/03 07:09:46;;;;;;;4.75;3.20;;;;;18.50;101825.00;;;;5049440;28;20206;-76
2022/05/03 07:12:14;;;;;;;3.83;3.03;;;;;18.60;101832.00;;;;5048990;28;20199;-76
2022/05/03 07:14:41;;;;;;;5.63;3.75;;;;;18.70;101830.00;;;;5049096;28;20231;-76
2022/05/03 07:17:08;;;;;;;4.53;3.13;;;;;18.90;101834.00;;;;5049149;28;20195;-76
2022/05/03 07:25:07;;;;;;;4.00;3.42;;;;;19.30;101836.00;;;;5048901;28;20211;-76
2022/05/03 07:27:35;;;;;;;4.00;3.35;;;;;19.40;101837.00;;;;5035766;28;20205;-76
2022/05/03 07:30:02;;;;;;;5.13;4.00;;;;;19.50;101841.00;;;;5048695;28;20583;-77
2022/05/03 07:32:29;;;;;;;4.97;3.97;;;;;19.60;101840.00;;;;5048353;28;20206;-76
2022/05/03 07:34:56;;;;;;;5.13;3.78;;;;;19.80;101848.00;;;;5049202;28;20672;-77
2022/05/03 07:37:25;;;;;;;5.68;4.20;;;;;19.90;101838.00;;;;5049120;28;20195;-76
2022/05/03 07:39:52;;;;;;;9.70;5.40;;;;;20.00;101843.00;;;;5048700;28;20203;-76
2022/05/03 07:42:19;;;;;;;6.05;5.05;;;;;20.10;101848.00;;;;5048311;28;20768;-77
2022/05/03 07:44:47;;;;;;;6.40;5.03;;;;;20.20;101843.00;;;;5048590;28;20203;-77
2022/05/03 07:47:15;;;;;;;7.25;5.70;;;;;20.30;101846.00;;;;5048766;28;20233;-77
2022/05/03 07:49:43;;;;;;;7.75;5.55;;;;;20.40;101849.00;;;;5041362;28;20200;-77
2022/05/03 07:52:10;;;;;;;8.98;6.30;;;;;20.40;101844.00;;;;5028786;28;20220;-77
2022/05/03 07:54:43;;;;;;;9.35;5.47;;;;;20.50;101845.00;;;;5028767;28;20717;-77
2022/05/03 07:57:12;;;;;;;8.55;5.43;;;;;20.60;101844.00;;;;5029223;28;20200;-76
2022/05/03 07:59:39;;;;;;;9.88;5.95;;;;;20.70;101852.00;;;;5041836;28;20208;-76
2022/05/03 08:02:07;;;;;;;8.45;6.03;;;;;20.80;101855.00;;;;5048682;28;20265;-76
2022/05/03 08:04:34;;;;;;;7.55;5.65;;;;;20.90;101852.00;;;;5048550;28;20658;-77
2022/05/03 08:07:02;;;;;;;8.15;6.65;;;;;21.00;101855.00;;;;5048223;28;20918;-77
2022/05/03 08:09:29;;;;;;;7.72;6.40;;;;;21.10;101848.00;;;;5048793;28;20588;-76
2022/05/03 08:11:58;;;;;;;7.25;6.40;;;;;21.10;101849.00;;;;5048710;28;20191;-76
2022/05/03 08:14:27;;;;;;;10.57;6.40;;;;;21.20;101854.00;;;;5049248;28;20696;-76
2022/05/03 08:16:55;;;;;;;8.15;5.93;;;;;21.30;101854.00;;;;5048334;28;20227;-76
2022/05/03 08:19:22;;;;;;;7.60;5.93;;;;;21.40;101855.00;;;;5047947;28;20203;-77
2022/05/03 08:21:52;;;;;;;6.82;5.88;;;;;21.50;101857.00;;;;5047771;28;20199;-76
2022/05/03 08:24:20;;;;;;;7.63;6.03;;;;;21.60;101859.00;;;;5047190;28;20234;-76
2022/05/03 08:26:47;;;;;;;7.13;5.70;;;;;21.70;101861.00;;;;5047938;28;20214;-77
2022/05/03 08:29:16;;;;;;;8.13;5.85;;;;;21.80;101854.00;;;;5048006;28;20196;-77
2022/05/03 08:31:44;;;;;;;7.10;5.43;;;;;21.90;101859.00;;;;5047773;28;20222;-76
2022/05/03 08:34:11;;;;;;;7.13;5.65;;;;;21.90;101864.00;;;;5048013;28;20211;-77
2022/05/03 08:36:38;;;;;;;5.97;4.95;;;;;22.00;101861.00;;;;5047787;28;20230;-77
2022/05/03 08:42:06;;;;;;;6.07;4.72;;;;;22.00;101871.00;;;;5027714;28;20698;-76
2022/05/03 08:44:35;;;;;;;7.53;5.10;;;;;22.10;101869.00;;;;5028270;28;20231;-77
2022/05/03 08:47:03;;;;;;;5.97;5.00;;;;;22.20;101871.00;;;;5027411;28;20974;-76
2022/05/03 08:49:42;;;;;;;7.82;5.07;;;;;22.20;101874.00;;;;5032356;28;20208;-77
2022/05/03 08:52:12;;;;;;;11.65;6.03;;;;;22.30;101864.00;;;;5047769;28;20238;-77
2022/05/03 08:54:39;;;;;;;6.70;5.15;;;;;22.40;101865.00;;;;5040368;28;20279;-77
2022/05/03 08:57:08;;;;;;;8.40;5.68;;;;;22.40;101876.00;;;;5030945;28;20231;-77
2022/05/03 08:59:38;;;;;;;5.30;4.30;;;;;22.50;101873.00;;;;5032576;28;20211;-77
2022/05/03 09:02:06;;;;;;;8.70;5.97;;;;;22.60;101874.00;;;;5031621;28;20560;-77
2022/05/03 09:04:33;;;;;;;8.38;5.68;;;;;22.70;101869.00;;;;5032045;28;20203;-77
2022/05/03 09:07:20;;;;;;;7.10;5.13;;;;;22.70;101871.00;;;;5039968;28;20206;-76
2022/05/03 09:09:48;;;;;;;9.88;5.30;;;;;22.90;101882.00;;;;5031699;28;20275;-77
2022/05/03 09:12:30;;;;;;;8.73;5.65;;;;;22.80;101877.00;;;;5031711;28;20404;-76
2022/05/03 09:15:00;;;;;;;10.38;6.05;;;;;22.90;101871.00;;;;5031516;28;20752;-77
2022/05/03 09:17:41;;;;;;;8.95;5.28;;;;;22.80;101880.00;;;;5031200;28;20291;-77
2022/05/03 09:25:54;;;;;;;7.97;5.50;;;;;23.00;101880.00;;;;5031767;28;20665;-76
2022/05/03 09:28:22;;;;;;;12.70;6.18;;;;;23.00;101877.00;;;;5031442;28;20200;-76
2022/05/03 09:30:52;;;;;;;8.88;5.63;;;;;23.00;101878.00;;;;5030198;28;20246;-77
2022/05/03 09:33:21;;;;;;;7.88;5.68;;;;;23.00;101877.00;;;;5031136;28;20205;-76
2022/05/03 09:35:49;;;;;;;7.72;5.55;;;;;23.00;101878.00;;;;5030917;28;20227;-76
2022/05/03 09:38:17;;;;;;;8.70;5.47;;;;;22.90;101878.00;;;;5030568;28;20236;-77
2022/05/03 09:40:48;;;;;;;8.38;6.30;;;;;22.90;101887.00;;;;5035814;28;20204;-76
2022/05/03 09:43:17;;;;;;;8.93;6.13;;;;;22.90;101884.00;;;;5050146;28;20220;-76
2022/05/03 09:45:44;;;;;;;7.22;5.30;;;;;22.90;101883.00;;;;5031969;28;20223;-77
2022/05/03 09:48:13;;;;;;;7.07;5.72;;;;;22.90;101890.00;;;;5030507;28;20216;-77
2022/05/03 09:50:43;;;;;;;7.88;5.85;;;;;22.90;101884.00;;;;5044979;28;20208;-76
2022/05/03 09:53:14;;;;;;;7.53;6.05;;;;;22.90;101882.00;;;;5049690;28;20991;-76
2022/05/03 09:55:42;;;;;;;6.70;5.38;;;;;23.00;101880.00;;;;5049685;28;20223;-76
2022/05/03 09:58:11;;;;;;;6.85;5.70;;;;;23.00;101879.00;;;;5042376;28;20574;-76
2022/05/03 10:00:41;;;;;;;8.35;5.10;;;;;23.00;101876.00;;;;5029982;28;20223;-76
2022/05/03 10:03:10;;;;;;;9.23;5.95;;;;;23.00;101885.00;;;;5030342;28;20193;-76
2022/05/03 10:05:41;;;;;;;7.50;5.45;;;;;23.10;101884.00;;;;5030187;28;21081;-77
2022/05/03 10:08:11;;;;;;;8.73;6.07;;;;;23.10;101883.00;;;;5030289;28;20251;-76
2022/05/03 10:10:43;;;;;;;7.38;5.80;;;;;23.10;101874.00;;;;5029837;28;20200;-77
2022/05/03 10:13:12;;;;;;;8.32;5.88;;;;;23.20;101869.00;;;;5029679;28;20208;-77
2022/05/03 10:21:26;;;;;;;8.55;5.72;;;;;23.30;101869.00;;;;5049779;28;20752;-76
2022/05/03 10:24:04;;;;;;;6.25;5.30;;;;;23.20;101862.00;;;;5049909;28;20211;-76
2022/05/03 10:27:01;;;;;;;7.38;5.47;;;;;23.30;101869.00;;;;5049288;28;20203;-77
2022/05/03 10:29:31;;;;;;;9.60;6.13;;;;;23.60;101863.00;;;;5049710;28;20216;-76
2022/05/03 10:32:02;;;;;;;8.45;5.43;;;;;23.80;101858.00;;;;5049730;28;20212;-77
2022/05/03 10:34:51;;;;;;;6.57;5.57;;;;;23.80;101855.00;;;;5049527;28;20634;-76
2022/05/03 10:37:43;;;;;;;7.25;6.00;;;;;24.00;101860.00;;;;5050001;28;20234;-76
2022/05/03 10:40:13;;;;;;;7.43;6.05;;;;;24.00;101854.00;;;;5049354;28;20215;-76
2022/05/03 10:42:41;;;;;;;9.23;5.43;;;;;24.00;101854.00;;;;5049351;28;20223;-76
2022/05/03 10:45:11;;;;;;;6.95;5.57;;;;;24.00;101850.00;;;;5049592;28;20663;-77
2022/05/03 10:47:49;;;;;;;9.63;6.10;;;;;23.90;101857.00;;;;5049722;28;20286;-77
2022/05/03 10:50:30;;;;;;;7.85;5.97;;;;;23.80;101849.00;;;;5034388;28;20203;-77
2022/05/03 10:53:18;;;;;;;9.45;5.70;;;;;23.90;101846.00;;;;5029947;28;20196;-77
2022/05/03 10:56:06;;;;;;;8.05;6.00;;;;;24.00;101841.00;;;;5029128;28;20206;-77
2022/05/03 10:58:35;;;;;;;8.82;5.45;;;;;24.30;101834.00;;;;5030188;28;20204;-77
2022/05/03 11:01:07;;;;;;;6.15;5.22;;;;;24.50;101830.00;;;;5042711;28;20652;-77
2022/05/03 11:03:36;;;;;;;7.22;6.07;;;;;24.60;101827.00;;;;5049424;28;20219;-77
2022/05/03 11:06:47;;;;;;;7.15;4.53;;;;;24.70;101826.00;;;;5048959;28;20242;-77
2022/05/03 11:09:26;;;;;;;4.47;3.40;;;;;24.90;101826.00;;;;5029976;28;20230;-76
2022/05/03 11:11:59;;;;;;;7.38;4.95;;;;;24.90;101824.00;;;;5049766;28;20211;-77
2022/05/03 11:14:49;;;;;;;6.05;5.07;;;;;24.80;101823.00;;;;5049775;28;20195;-77
2022/05/03 11:17:18;;;;;;;8.50;5.50;;;;;24.90;101822.00;;;;5049979;28;20651;-77
2022/05/03 11:19:55;;;;;;;12.90;6.03;;;;;24.80;101823.00;;;;5047993;28;20223;-77
2022/05/03 11:22:25;;;;;;;13.57;6.07;;;;;24.70;101819.00;;;;5048216;28;20199;-77
2022/05/03 11:24:56;;;;;;;8.15;5.50;;;;;24.70;101818.00;;;;5029607;28;20246;-77
2022/05/03 11:27:25;;;;;;;9.75;5.80;;;;;24.70;101817.00;;;;5029523;28;20212;-77
2022/05/03 11:29:58;;;;;;;7.72;5.63;;;;;24.60;101819.00;;;;5045804;28;20195;-77
2022/05/03 11:32:34;;;;;;;9.05;5.53;;;;;24.50;101811.00;;;;5049566;28;20199;-75
2022/05/03 11:35:02;;;;;;;8.02;5.53;;;;;24.40;101815.00;;;;5048583;28;20214;-75
2022/05/03 11:37:30;;;;;;;9.95;5.72;;;;;24.40;101814.00;;;;5049115;28;20231;-75
2022/05/03 11:40:05;;;;;;;9.75;5.57;;;;;24.20;101810.00;;;;5049092;28;20227;-76
2022/05/03 11:42:38;;;;;;;6.85;4.72;;;;;24.20;101810.00;;;;5048172;28;20262;-75
2022/05/03 11:45:07;;;;;;;6.43;5.13;;;;;24.10;101809.00;;;;5048484;28;20206;-75
2022/05/03 11:47:36;;;;;;;8.85;6.03;;;;;24.10;101809.00;;;;5048710;28;20210;-75
2022/05/03 11:50:05;;;;;;;7.35;5.40;;;;;24.00;101807.00;;;;5047641;28;20265;-75
2022/05/03 11:58:04;;;;;;;6.68;5.03;;;;;23.80;101809.00;;;;5047879;28;21084;-75
2022/05/03 12:00:31;;;;;;;8.00;6.20;;;;;23.70;101802.00;;;;5047964;28;20729;-76
2022/05/03 12:03:01;;;;;;;7.68;6.30;;;;;23.50;101805.00;;;;5048517;28;20198;-76
2022/05/03 12:05:29;;;;;;;8.68;7.30;;;;;23.40;101805.00;;;;5048150;28;20655;-76
2022/05/03 12:07:57;;;;;;;12.50;8.52;;;;;23.30;101807.00;;;;5049479;28;20202;-76
2022/05/03 12:10:28;;;;;;;12.23;8.02;;;;;23.10;101805.00;;;;5048557;28;20253;-75
2022/05/03 12:13:09;;;;;;;15.57;10.20;;;;;22.80;101806.00;;;;5048465;28;20196;-75
2022/05/03 12:15:39;;;;;;;15.90;10.43;;;;;22.80;101802.00;;;;5028064;28;20200;-77
2022/05/03 12:18:15;;;;;;;14.70;9.38;;;;;22.60;101810.00;;;;5035921;28;20230;-75
2022/05/03 12:20:46;;;;;;;13.23;9.27;;;;;22.50;101810.00;;;;5028292;28;20678;-75
2022/05/03 12:23:17;;;;;;;13.05;8.05;;;;;22.30;101810.00;;;;5028611;28;20214;-75
2022/05/03 12:25:48;;;;;;;14.50;8.23;;;;;22.20;101815.00;;;;5028199;28;20212;-75
2022/05/03 12:28:16;;;;;;;12.57;8.63;;;;;22.10;101819.00;;;;5028290;28;20283;-75
2022/05/03 12:30:44;;;;;;;10.68;7.82;;;;;22.00;101815.00;;;;5032746;28;20624;-75
2022/05/03 12:33:14;;;;;;;15.25;9.07;;;;;21.90;101813.00;;;;5047835;28;20300;-75
2022/05/03 12:35:44;;;;;;;13.40;8.75;;;;;21.80;101813.00;;;;5048090;28;20646;-75
2022/05/03 12:38:13;;;;;;;15.00;8.00;;;;;21.70;101809.00;;;;5048249;28;20242;-75
2022/05/03 12:40:48;;;;;;;14.32;9.02;;;;;21.60;101808.00;;;;5047437;28;20195;-75
2022/05/03 12:43:17;;;;;;;12.35;8.32;;;;;21.60;101805.00;;;;5048293;28;20306;-75
2022/05/03 12:45:59;;;;;;;13.60;8.75;;;;;21.40;101807.00;;;;5047656;28;20200;-75
2022/05/03 12:48:27;;;;;;;10.52;7.97;;;;;21.50;101804.00;;;;5047402;28;20196;-76
2022/05/03 12:50:55;;;;;;;13.95;9.07;;;;;21.40;101800.00;;;;5047990;28;20238;-75
2022/05/03 12:53:26;;;;;;;15.35;9.27;;;;;21.40;101799.00;;;;5047857;28;20639;-76
2022/05/03 12:55:56;;;;;;;11.10;8.48;;;;;21.30;101790.00;;;;5047604;28;20199;-75
2022/05/03 12:58:24;;;;;;;10.48;7.75;;;;;21.30;101798.00;;;;5047959;28;20227;-76
2022/05/03 13:00:53;;;;;;;11.30;8.27;;;;;21.30;101795.00;;;;5046477;28;20231;-76
2022/05/03 13:03:21;;;;;;;14.60;8.15;;;;;21.20;101793.00;;;;5048782;28;20277;-75
2022/05/03 13:05:48;;;;;;;11.30;7.55;;;;;21.20;101788.00;;;;5047504;28;20286;-75